createdAt,value
2019-03-05T00:02:59.935Z,96598.00
2019-03-05T00:08:06.900Z,96609.00
2019-03-05T00:13:13.581Z,96602.00
2019-03-05T00:18:20.021Z,96612.00
2019-03-05T00:23:50.168Z,96602.00
2019-03-05T00:29:37.651Z,96618.00
2019-03-05T00:35:13.690Z,96621.00
2019-03-05T00:41:03.302Z,96628.00
2019-03-05T00:46:22.636Z,96621.00
2019-03-05T00:52:01.935Z,96620.00
2019-03-05T00:57:23.929Z,96626.00
2019-03-05T01:03:11.409Z,96634.00
2019-03-05T01:08:19.706Z,96624.00
2019-03-05T01:13:27.094Z,96613.00
2019-03-05T01:18:34.481Z,96625.00
2019-03-05T01:23:42.457Z,96611.00
2019-03-05T01:28:48.501Z,96595.00
2019-03-05T01:33:57.215Z,96609.00
2019-03-05T01:39:19.814Z,96607.00
2019-03-05T01:44:27.206Z,96609.00
2019-03-05T01:49:33.941Z,96626.00
2019-03-05T01:54:40.403Z,96622.00
2019-03-05T01:59:46.234Z,96623.00
2019-03-05T02:05:07.226Z,96622.00
2019-03-05T02:10:37.428Z,96629.00
2019-03-05T02:15:44.006Z,96635.00
2019-03-05T02:20:50.249Z,96650.00
2019-03-05T02:26:06.611Z,96633.00
2019-03-05T02:31:20.113Z,96630.00
2019-03-05T02:36:39.876Z,96644.00
2019-03-05T02:42:09.205Z,96636.00
2019-03-05T02:47:46.817Z,96639.00
2019-03-05T02:53:23.055Z,96634.00
2019-03-05T02:58:31.885Z,96648.00
2019-03-05T03:03:43.510Z,96648.00
2019-03-05T03:08:49.432Z,96651.00
2019-03-05T03:13:55.955Z,96654.00
2019-03-05T03:19:01.919Z,96658.00
2019-03-05T03:24:07.956Z,96666.00
2019-03-05T03:29:13.977Z,96674.00
2019-03-05T03:34:20.639Z,96673.00
2019-03-05T03:39:27.171Z,96699.00
2019-03-05T03:44:33.699Z,96706.00
2019-03-05T03:49:40.367Z,96692.00
2019-03-05T03:54:46.619Z,96704.00
2019-03-05T03:59:52.597Z,96715.00
2019-03-05T04:05:00.970Z,96713.00
2019-03-05T04:10:12.040Z,96717.00
2019-03-05T04:15:20.894Z,96719.00
2019-03-05T04:20:49.783Z,96720.00
2019-03-05T04:26:08.741Z,96707.00
2019-03-05T04:31:15.850Z,96715.00
2019-03-05T04:36:22.586Z,96758.00
2019-03-05T04:41:29.336Z,96736.00
2019-03-05T04:46:36.646Z,96746.00
2019-03-05T04:51:49.193Z,96751.00
2019-03-05T04:56:56.175Z,96733.00
2019-03-05T05:02:03.106Z,96736.00
2019-03-05T05:07:09.994Z,96743.00
2019-03-05T05:12:17.781Z,96752.00
2019-03-05T05:17:43.029Z,96754.00
2019-03-05T05:22:48.998Z,96755.00
2019-03-05T05:27:55.774Z,96751.00
2019-03-05T05:33:14.856Z,96762.00
2019-03-05T05:38:21.634Z,96752.00
2019-03-05T05:43:30.990Z,96749.00
2019-03-05T05:48:37.613Z,96750.00
2019-03-05T05:53:45.056Z,96752.00
2019-03-05T05:58:52.974Z,96776.00
2019-03-05T06:03:58.885Z,96768.00
2019-03-05T06:09:06.282Z,96779.00
2019-03-05T06:14:12.929Z,96774.00
2019-03-05T06:19:20.295Z,96782.00
2019-03-05T06:24:27.816Z,96782.00
2019-03-05T06:29:34.551Z,96799.00
2019-03-05T06:34:42.665Z,96788.00
2019-03-05T06:39:48.702Z,96793.00
2019-03-05T06:44:55.416Z,96803.00
2019-03-05T06:50:02.210Z,96838.00
2019-03-05T06:55:13.770Z,96838.00
2019-03-05T07:00:44.089Z,96838.00
2019-03-05T07:06:44.371Z,96854.00
2019-03-05T07:12:24.760Z,96849.00
2019-03-05T07:18:00.856Z,96845.00
2019-03-05T07:23:29.485Z,96840.00
2019-03-05T07:28:36.139Z,96844.00
2019-03-05T07:33:42.700Z,96837.00
2019-03-05T07:38:48.674Z,96848.00
2019-03-05T07:44:15.217Z,96863.00
2019-03-05T07:49:22.558Z,96871.00
2019-03-05T07:54:28.955Z,96885.00
2019-03-05T07:59:35.862Z,96907.00
2019-03-05T08:04:42.650Z,96898.00
2019-03-05T08:09:50.120Z,96903.00
2019-03-05T08:15:23.545Z,96904.00
2019-03-05T08:20:32.646Z,96906.00
2019-03-05T08:25:39.515Z,96903.00
2019-03-05T08:30:45.543Z,96911.00
2019-03-05T08:35:52.435Z,96915.00
2019-03-05T08:40:58.387Z,96927.00
2019-03-05T08:46:05.292Z,96914.00
2019-03-05T08:51:13.978Z,96930.00
2019-03-05T08:56:24.454Z,96925.00
2019-03-05T09:01:32.702Z,96911.00
2019-03-05T09:06:39.460Z,96929.00
2019-03-05T09:11:45.507Z,96929.00
2019-03-05T09:16:55.006Z,96927.00
2019-03-05T09:22:01.853Z,96938.00
2019-03-05T09:27:10.218Z,96927.00
2019-03-05T09:32:17.734Z,96937.00
2019-03-05T09:37:24.241Z,96936.00
2019-03-05T09:42:39.496Z,96920.00
2019-03-05T09:47:42.185Z,96938.00
2019-03-05T09:52:54.978Z,96923.00
2019-03-05T09:58:07.425Z,96929.00
2019-03-05T10:03:08.649Z,96919.00
2019-03-05T10:08:15.351Z,96924.00
2019-03-05T10:13:22.456Z,96925.00
2019-03-05T10:18:29.104Z,96924.00
2019-03-05T10:23:35.900Z,96929.00
2019-03-05T10:28:43.479Z,96935.00
2019-03-05T10:33:49.672Z,96944.00
2019-03-05T10:38:57.565Z,96930.00
2019-03-05T10:44:03.271Z,96925.00
2019-03-05T10:49:11.235Z,96933.00
2019-03-05T10:54:18.004Z,96922.00
2019-03-05T10:59:24.961Z,96927.00
2019-03-05T11:04:33.157Z,96921.00
2019-03-05T11:09:39.872Z,96928.00
2019-03-05T11:14:45.877Z,96912.00
2019-03-05T11:19:51.886Z,96907.00
2019-03-05T11:24:57.817Z,96946.00
2019-03-05T11:30:06.329Z,96925.00
2019-03-05T11:35:19.599Z,96923.00
2019-03-05T11:40:26.776Z,96920.00
2019-03-05T11:45:33.925Z,96892.00
2019-03-05T11:50:41.243Z,96920.00
2019-03-05T11:55:49.508Z,96930.00
2019-03-05T12:00:58.834Z,96929.00
2019-03-05T12:06:05.526Z,96963.00
2019-03-05T12:11:11.504Z,97002.00
2019-03-05T12:16:18.736Z,96996.00
2019-03-05T12:21:25.748Z,96992.00
2019-03-05T12:26:32.496Z,96985.00
2019-03-05T12:31:40.511Z,97002.00
2019-03-05T12:36:46.540Z,96988.00
2019-03-05T12:41:53.444Z,96980.00
2019-03-05T12:46:59.563Z,96972.00
2019-03-05T12:52:06.194Z,96985.00
2019-03-05T12:57:13.000Z,96980.00
2019-03-05T13:02:19.876Z,96989.00
2019-03-05T13:07:26.484Z,96980.00
2019-03-05T13:12:36.055Z,96971.00
2019-03-05T13:17:41.187Z,96977.00
2019-03-05T13:22:47.065Z,96976.00
2019-03-05T13:27:57.643Z,96981.00
2019-03-05T13:33:02.380Z,96971.00
2019-03-05T13:38:11.113Z,96976.00
2019-03-05T13:43:17.839Z,96948.00
2019-03-05T13:49:07.863Z,96955.00
2019-03-05T13:54:50.004Z,96944.00
2019-03-05T14:00:13.006Z,96960.00
2019-03-05T14:05:47.629Z,96948.00
2019-03-05T14:10:54.713Z,96941.00
2019-03-05T14:16:01.635Z,96943.00
2019-03-05T14:21:08.469Z,96960.00
2019-03-05T14:26:33.751Z,96988.00
2019-03-05T14:31:40.845Z,96986.00
2019-03-05T14:36:46.920Z,96993.00
2019-03-05T14:41:55.405Z,97026.00
2019-03-05T14:47:04.671Z,97023.00
2019-03-05T14:52:11.646Z,97027.00
2019-03-05T14:57:19.391Z,97030.00
2019-03-05T15:02:26.409Z,97044.00
2019-03-05T15:07:35.032Z,97041.00
2019-03-05T15:12:42.069Z,97035.00
2019-03-05T15:17:48.292Z,97037.00
2019-03-05T15:23:34.801Z,97027.00
2019-03-05T15:28:41.783Z,97027.00
2019-03-05T15:33:47.799Z,97033.00
2019-03-05T15:38:54.516Z,97036.00
2019-03-05T15:44:00.538Z,97042.00
2019-03-05T15:49:06.545Z,97046.00
2019-03-05T15:54:13.637Z,97039.00
2019-03-05T15:59:20.310Z,97035.00
2019-03-05T16:04:27.659Z,97042.00
2019-03-05T16:09:35.085Z,97113.00
2019-03-05T16:14:42.643Z,97124.00
2019-03-05T16:19:49.058Z,97112.00
2019-03-05T16:24:55.886Z,97110.00
2019-03-05T16:30:03.274Z,97114.00
2019-03-05T16:35:21.399Z,97113.00
2019-03-05T16:40:36.210Z,97121.00
2019-03-05T16:45:44.953Z,97141.00
2019-03-05T16:51:06.893Z,97140.00
2019-03-05T16:56:15.512Z,97161.00
2019-03-05T17:01:24.286Z,97174.00
2019-03-05T17:06:33.004Z,97179.00
2019-03-05T17:12:20.164Z,97199.00
2019-03-05T17:17:27.612Z,97203.00
2019-03-05T17:22:35.095Z,97220.00
2019-03-05T17:27:42.177Z,97227.00
2019-03-05T17:33:09.603Z,97228.00
2019-03-05T17:38:17.155Z,97232.00
2019-03-05T17:43:25.337Z,97239.00
2019-03-05T17:48:32.620Z,97256.00
2019-03-05T17:53:40.305Z,97274.00
2019-03-05T17:58:46.761Z,97272.00
2019-03-05T18:03:53.027Z,97285.00
2019-03-05T18:08:59.096Z,97296.00
2019-03-05T18:14:05.580Z,97310.00
2019-03-05T18:19:13.348Z,97323.00
2019-03-05T18:24:21.380Z,97327.00
2019-03-05T18:29:29.338Z,97337.00
2019-03-05T18:34:36.488Z,97341.00
2019-03-05T18:39:44.691Z,97351.00
2019-03-05T18:44:54.154Z,97354.00
2019-03-05T18:50:01.415Z,97355.00
2019-03-05T18:55:28.066Z,97370.00
2019-03-05T19:00:38.948Z,97371.00
2019-03-05T19:05:45.401Z,97386.00
2019-03-05T19:10:51.944Z,97401.00
2019-03-05T19:15:59.332Z,97421.00
2019-03-05T19:21:06.873Z,97431.00
2019-03-05T19:26:13.852Z,97445.00
2019-03-05T19:31:20.842Z,97454.00
2019-03-05T19:36:28.343Z,97459.00
2019-03-05T19:41:36.090Z,97463.00
2019-03-05T19:46:44.177Z,97464.00
2019-03-05T19:51:50.729Z,97472.00
2019-03-05T19:56:57.361Z,97474.00
2019-03-05T20:02:04.869Z,97485.00
2019-03-05T20:07:12.433Z,97479.00
2019-03-05T20:12:19.798Z,97489.00
2019-03-05T20:17:28.268Z,97500.00
2019-03-05T20:22:35.921Z,97511.00
2019-03-05T20:27:43.794Z,97504.00
2019-03-05T20:32:50.083Z,97509.00
2019-03-05T20:38:01.239Z,97517.00
2019-03-05T20:43:09.029Z,97516.00
2019-03-05T20:48:16.199Z,97522.00
2019-03-05T20:53:22.857Z,97526.00
2019-03-05T20:58:49.077Z,97521.00
2019-03-05T21:03:57.063Z,97523.00
2019-03-05T21:09:23.248Z,97544.00
2019-03-05T21:14:30.628Z,97548.00
2019-03-05T21:19:37.405Z,97553.00
2019-03-05T21:24:45.116Z,97552.00
2019-03-05T21:29:51.386Z,97558.00
2019-03-05T21:34:58.419Z,97553.00
2019-03-05T21:40:23.339Z,97572.00
2019-03-05T21:45:42.505Z,97579.00
2019-03-05T21:50:48.658Z,97596.00
2019-03-05T21:55:55.310Z,97586.00
2019-03-05T22:01:01.316Z,97598.00
2019-03-05T22:06:28.913Z,97606.00
2019-03-05T22:11:35.448Z,97618.00
2019-03-05T22:16:42.174Z,97625.00
2019-03-05T22:21:49.833Z,97613.00
2019-03-05T22:26:56.184Z,97627.00
2019-03-05T22:32:03.190Z,97624.00
2019-03-05T22:37:10.067Z,97622.00
2019-03-05T22:42:18.479Z,97633.00
2019-03-05T22:47:25.297Z,97637.00
2019-03-05T22:52:31.691Z,97644.00
2019-03-05T22:57:39.582Z,97651.00
2019-03-05T23:02:45.568Z,97648.00
2019-03-05T23:07:52.945Z,97653.00
2019-03-05T23:12:59.252Z,97655.00
2019-03-05T23:18:07.642Z,97652.00
2019-03-05T23:23:26.379Z,97659.00
2019-03-05T23:28:33.126Z,97658.00
2019-03-05T23:33:41.370Z,97663.00
2019-03-05T23:38:47.383Z,97677.00
2019-03-05T23:43:54.304Z,97674.00
2019-03-05T23:49:00.415Z,97672.00
2019-03-05T23:54:08.635Z,97676.00
2019-03-05T23:59:16.912Z,97670.00
